Santa Cruz da Vitoria, Brazil
Current Conditions -  °F | °C
As of 3:00 AM on Sunday 26 Oct 2014 (Local Time) from SBIL Reporting Station
Rain Showers Rain Showers  
Wind Chill: 77°   Ceiling: Unl
Heat Index: 79°   Visibility: 6mi
Dew Point: 70°   Wind: 6mph
Humidity: 78%   Direction: 40°NE
Pressure: 29.91"   Gusts: NA
Location:  14.96°S, 39.81°W
Report Text: SBIL 260600Z 04005KT 9999 VCSH SCT020 25/21 Q1013
Loading
Personal Weather Stations






























Interactive Weather Map
Tropical Storm Tracking
New forecast layout! Learn more

10-Day Weather Forecast

Advertisements
Track Severe Weather on mobile